createdAt,value
2022-10-17T00:01:18.271Z,9.22
2022-10-17T00:03:46.119Z,9.14
2022-10-17T00:06:16.039Z,9.08
2022-10-17T00:08:44.822Z,9.03
2022-10-17T00:11:24.706Z,8.98
2022-10-17T00:13:56.395Z,8.93
2022-10-17T00:20:21.570Z,8.84
2022-10-17T00:22:49.388Z,8.83
2022-10-17T00:25:17.686Z,8.82
2022-10-17T00:27:45.462Z,8.82
2022-10-17T00:30:16.862Z,8.82
2022-10-17T00:32:44.515Z,8.79
2022-10-17T00:35:12.047Z,8.79
2022-10-17T00:37:39.678Z,8.76
2022-10-17T00:40:08.032Z,8.78
2022-10-17T00:42:35.724Z,8.81
2022-10-17T00:45:25.046Z,8.80
2022-10-17T00:48:00.925Z,8.81
2022-10-17T00:50:29.000Z,8.83
2022-10-17T00:53:01.402Z,8.83
2022-10-17T00:55:33.154Z,8.85
2022-10-17T00:58:03.395Z,8.86
2022-10-17T01:00:31.150Z,8.87
2022-10-17T01:02:59.248Z,8.87
2022-10-17T01:05:26.808Z,8.86
2022-10-17T01:07:56.774Z,8.85
2022-10-17T01:10:30.554Z,8.90
2022-10-17T01:13:01.036Z,8.92
2022-10-17T01:16:24.327Z,8.88
2022-10-17T01:19:20.126Z,8.88
2022-10-17T01:22:01.690Z,8.91
2022-10-17T01:25:01.285Z,8.92
2022-10-17T01:28:00.004Z,8.96
2022-10-17T01:30:55.149Z,8.99
2022-10-17T01:33:58.164Z,9.03
2022-10-17T01:36:35.569Z,9.02
2022-10-17T01:39:14.626Z,8.98
2022-10-17T01:41:51.104Z,8.99
2022-10-17T01:44:21.995Z,9.01
2022-10-17T01:46:54.854Z,9.01
2022-10-17T01:49:26.991Z,9.01
2022-10-17T01:52:03.085Z,8.98
2022-10-17T01:54:48.312Z,8.96
2022-10-17T01:57:29.909Z,8.93
2022-10-17T01:59:58.148Z,8.93
2022-10-17T02:02:26.948Z,8.89
2022-10-17T02:04:57.435Z,8.93
2022-10-17T02:07:25.287Z,8.94
2022-10-17T02:09:53.618Z,8.92
2022-10-17T02:13:02.546Z,8.89
2022-10-17T02:15:40.420Z,8.87
2022-10-17T02:18:21.518Z,8.83
2022-10-17T02:20:55.725Z,8.87
2022-10-17T02:23:54.527Z,8.90
2022-10-17T02:26:35.623Z,8.90
2022-10-17T02:29:17.851Z,8.86
2022-10-17T02:31:58.561Z,8.82
2022-10-17T02:34:30.972Z,8.80
2022-10-17T02:37:02.141Z,8.78
2022-10-17T02:39:31.917Z,8.78
2022-10-17T02:42:02.349Z,8.74
2022-10-17T02:44:32.704Z,8.72
2022-10-17T02:47:12.760Z,8.70
2022-10-17T02:49:47.209Z,8.70
2022-10-17T02:52:22.598Z,8.69
2022-10-17T02:55:04.947Z,8.69
2022-10-17T02:58:11.506Z,8.68
2022-10-17T03:00:40.966Z,8.66
2022-10-17T03:03:27.045Z,8.62
2022-10-17T03:05:54.812Z,8.62
2022-10-17T03:08:25.295Z,8.68
2022-10-17T03:10:52.924Z,8.74
2022-10-17T03:13:21.826Z,8.81
2022-10-17T03:15:50.604Z,8.86
2022-10-17T03:18:18.161Z,8.93
2022-10-17T03:20:48.038Z,8.93
2022-10-17T03:23:15.859Z,8.91
2022-10-17T03:25:43.495Z,8.85
2022-10-17T03:28:14.327Z,8.84
2022-10-17T03:30:41.948Z,8.82
2022-10-17T03:33:09.787Z,8.79
2022-10-17T03:35:40.094Z,8.77
2022-10-17T03:38:09.064Z,8.74
2022-10-17T03:40:37.345Z,8.70
2022-10-17T03:43:05.244Z,8.65
2022-10-17T03:45:33.037Z,8.60
2022-10-17T03:48:00.621Z,8.57
2022-10-17T03:50:28.189Z,8.56
2022-10-17T03:52:56.594Z,8.55
2022-10-17T03:55:24.548Z,8.53
2022-10-17T03:57:52.165Z,8.50
2022-10-17T04:00:21.873Z,8.47
2022-10-17T04:02:55.738Z,8.43
2022-10-17T04:05:23.362Z,8.43
2022-10-17T04:07:50.899Z,8.43
2022-10-17T04:10:23.322Z,8.45
2022-10-17T04:12:51.619Z,8.44
2022-10-17T04:15:19.233Z,8.45
2022-10-17T04:17:48.655Z,8.43
2022-10-17T04:20:17.646Z,8.45
2022-10-17T04:22:45.256Z,8.45
2022-10-17T04:25:13.841Z,8.45
2022-10-17T04:27:44.756Z,8.45
2022-10-17T04:30:13.824Z,8.44
2022-10-17T04:32:43.076Z,8.47
2022-10-17T04:35:29.936Z,8.46
2022-10-17T04:38:03.052Z,8.44
2022-10-17T04:40:30.620Z,8.43
2022-10-17T04:43:00.246Z,8.42
2022-10-17T04:45:35.166Z,8.39
2022-10-17T04:48:04.759Z,8.36
2022-10-17T04:50:32.457Z,8.34
2022-10-17T04:53:32.707Z,8.36
2022-10-17T04:56:00.675Z,8.40
2022-10-17T04:58:30.391Z,8.48
2022-10-17T05:00:58.135Z,8.55
2022-10-17T05:03:29.195Z,8.63
2022-10-17T05:05:56.900Z,8.73
2022-10-17T05:08:24.643Z,8.80
2022-10-17T05:10:52.321Z,8.86
2022-10-17T05:13:20.113Z,8.88
2022-10-17T05:15:48.088Z,8.91
2022-10-17T05:18:16.629Z,9.03
2022-10-17T05:20:45.083Z,9.18
2022-10-17T05:23:13.031Z,9.25
2022-10-17T05:25:43.959Z,9.27
2022-10-17T05:28:12.334Z,9.30
2022-10-17T05:31:28.097Z,9.33
2022-10-17T05:33:57.638Z,9.32
2022-10-17T05:36:25.703Z,9.31
2022-10-17T05:38:59.052Z,9.33
2022-10-17T05:41:27.960Z,9.36
2022-10-17T05:43:55.865Z,9.37
2022-10-17T05:46:36.622Z,9.34
2022-10-17T05:49:14.671Z,9.31
2022-10-17T05:51:58.649Z,9.32
2022-10-17T05:54:27.815Z,9.37
2022-10-17T05:56:56.899Z,9.42
2022-10-17T05:59:28.756Z,9.46
2022-10-17T06:02:19.199Z,9.50
2022-10-17T06:04:49.510Z,9.58
2022-10-17T06:07:20.622Z,9.64
2022-10-17T06:09:49.882Z,9.68
2022-10-17T06:12:18.208Z,9.68
2022-10-17T06:18:01.032Z,9.82
2022-10-17T06:20:28.800Z,9.89
2022-10-17T06:22:56.448Z,9.91
2022-10-17T06:25:38.171Z,9.92
2022-10-17T06:28:06.222Z,9.95
2022-10-17T06:30:33.970Z,9.96
2022-10-17T06:33:02.184Z,9.98
2022-10-17T06:35:29.895Z,10.03
2022-10-17T06:37:58.226Z,10.10
2022-10-17T06:41:42.986Z,10.14
2022-10-17T06:48:49.101Z,10.38
2022-10-17T06:52:01.867Z,10.39
2022-10-17T06:58:14.333Z,10.53
2022-10-17T07:01:21.265Z,10.55
2022-10-17T07:03:55.554Z,10.56
2022-10-17T07:09:25.249Z,10.59
2022-10-17T07:11:56.682Z,10.64
2022-10-17T07:14:32.369Z,10.66
2022-10-17T07:20:16.529Z,10.73
2022-10-17T07:23:06.866Z,10.75
2022-10-17T07:25:40.051Z,10.77
2022-10-17T07:28:09.957Z,10.74
2022-10-17T07:30:38.845Z,10.75
2022-10-17T07:33:12.460Z,10.75
2022-10-17T07:35:41.079Z,10.73
2022-10-17T07:38:09.243Z,10.74
2022-10-17T07:40:36.907Z,10.79
2022-10-17T07:43:04.416Z,10.85
2022-10-17T07:45:32.269Z,10.93
2022-10-17T07:47:59.766Z,11.03
2022-10-17T07:50:27.694Z,11.15
2022-10-17T07:52:55.253Z,11.27
2022-10-17T07:55:22.806Z,11.40
2022-10-17T07:57:50.283Z,11.41
2022-10-17T08:00:17.870Z,11.38
2022-10-17T08:02:45.375Z,11.37
2022-10-17T08:05:12.850Z,11.33
2022-10-17T08:07:41.497Z,11.38
2022-10-17T08:10:12.737Z,11.39
2022-10-17T08:12:40.382Z,11.38
2022-10-17T08:15:08.779Z,11.37
2022-10-17T08:17:38.291Z,11.44
2022-10-17T08:20:06.793Z,11.51
2022-10-17T08:22:35.592Z,11.58
2022-10-17T08:25:03.221Z,11.65
2022-10-17T08:27:32.377Z,12.26
2022-10-17T08:30:00.500Z,12.94
2022-10-17T08:32:30.133Z,13.50
2022-10-17T08:34:57.851Z,13.96
2022-10-17T08:37:25.495Z,14.27
2022-10-17T08:39:53.039Z,14.65
2022-10-17T08:42:39.180Z,14.88
2022-10-17T08:45:27.024Z,14.83
2022-10-17T08:48:02.718Z,14.69
2022-10-17T08:50:42.581Z,14.66
2022-10-17T08:53:19.964Z,14.69
2022-10-17T08:55:50.545Z,14.66
2022-10-17T08:58:24.666Z,14.65
2022-10-17T09:04:51.441Z,14.35
2022-10-17T09:07:38.877Z,14.44
2022-10-17T09:10:27.768Z,14.31
2022-10-17T09:13:05.398Z,14.18
2022-10-17T09:15:53.508Z,13.93
2022-10-17T09:18:35.371Z,13.71
2022-10-17T09:21:24.282Z,13.68
2022-10-17T09:24:03.964Z,13.66
2022-10-17T09:26:40.492Z,13.85
2022-10-17T09:29:29.735Z,13.97
2022-10-17T09:32:11.393Z,14.19
2022-10-17T09:34:39.316Z,14.35
2022-10-17T09:37:13.505Z,14.31
2022-10-17T09:39:42.494Z,14.62
2022-10-17T09:42:14.558Z,14.98
2022-10-17T09:45:01.223Z,15.02
2022-10-17T09:47:41.530Z,15.43
2022-10-17T09:50:31.345Z,15.83
2022-10-17T09:53:22.409Z,15.72
2022-10-17T09:55:56.245Z,16.05
2022-10-17T09:58:24.406Z,15.72
2022-10-17T10:00:51.993Z,16.28
2022-10-17T10:03:25.493Z,17.17
2022-10-17T10:06:06.893Z,17.81
2022-10-17T10:08:38.080Z,18.21
2022-10-17T10:11:13.355Z,18.16
2022-10-17T10:13:42.816Z,17.85
2022-10-17T10:16:33.694Z,18.00
2022-10-17T10:19:03.700Z,18.10
2022-10-17T10:21:34.570Z,18.20
2022-10-17T10:24:14.998Z,18.05
2022-10-17T10:26:50.440Z,18.26
2022-10-17T10:29:52.734Z,18.17
2022-10-17T10:32:31.477Z,18.42
2022-10-17T10:35:01.317Z,18.74
2022-10-17T10:37:34.307Z,18.20
2022-10-17T10:40:06.268Z,18.15
2022-10-17T10:42:37.757Z,17.92
2022-10-17T10:45:43.276Z,17.59
2022-10-17T10:48:24.291Z,17.48
2022-10-17T10:50:54.615Z,16.88
2022-10-17T10:53:45.847Z,16.38
2022-10-17T10:56:37.213Z,16.32
2022-10-17T10:59:29.307Z,16.01
2022-10-17T11:02:12.647Z,15.62
2022-10-17T11:04:55.967Z,15.26
2022-10-17T11:07:29.658Z,15.07
2022-10-17T11:10:31.996Z,14.83
2022-10-17T11:13:10.671Z,14.92
2022-10-17T11:15:50.022Z,14.96
2022-10-17T11:18:43.172Z,15.56
2022-10-17T11:21:19.992Z,16.00
2022-10-17T11:24:12.431Z,15.95
2022-10-17T11:26:53.692Z,15.95
2022-10-17T11:29:26.243Z,15.95
2022-10-17T11:31:57.496Z,15.59
2022-10-17T11:34:32.462Z,15.31
2022-10-17T11:37:12.188Z,15.11
2022-10-17T11:39:49.718Z,15.10
2022-10-17T11:42:30.557Z,14.74
2022-10-17T11:45:09.592Z,14.52
2022-10-17T11:47:46.017Z,14.37
2022-10-17T11:53:17.060Z,13.66
2022-10-17T11:55:46.504Z,13.41
2022-10-17T11:58:14.131Z,13.31
2022-10-17T12:01:03.180Z,13.05
2022-10-17T12:03:35.967Z,13.02
2022-10-17T12:06:35.651Z,13.17
2022-10-17T12:09:37.212Z,13.22
2022-10-17T12:12:05.200Z,13.23
2022-10-17T12:14:46.702Z,13.33
2022-10-17T12:17:39.416Z,13.18
2022-10-17T12:20:25.791Z,12.95
2022-10-17T12:22:54.851Z,12.82
2022-10-17T12:25:32.162Z,12.73
2022-10-17T12:28:19.974Z,12.70
2022-10-17T12:31:05.701Z,12.72
2022-10-17T12:33:37.850Z,12.68
2022-10-17T12:36:17.501Z,12.57
2022-10-17T12:38:50.070Z,12.54
2022-10-17T12:41:40.633Z,12.40
2022-10-17T12:44:14.796Z,12.36
2022-10-17T12:46:51.303Z,12.28
2022-10-17T12:49:22.003Z,12.21
2022-10-17T12:52:11.259Z,12.14
2022-10-17T12:55:14.550Z,12.19
2022-10-17T12:58:00.409Z,12.26
2022-10-17T13:00:34.645Z,12.32
2022-10-17T13:03:11.560Z,12.48
2022-10-17T13:05:42.428Z,12.58
2022-10-17T13:08:18.250Z,12.66
2022-10-17T13:10:51.607Z,12.71
2022-10-17T13:13:39.211Z,12.81
2022-10-17T13:16:07.100Z,12.89
2022-10-17T13:18:34.655Z,12.98
2022-10-17T13:21:06.301Z,13.02
2022-10-17T13:23:38.018Z,13.08
2022-10-17T13:26:21.598Z,13.10
2022-10-17T13:29:05.886Z,13.15
2022-10-17T13:31:36.170Z,13.25
2022-10-17T13:34:06.682Z,13.35
2022-10-17T13:36:35.601Z,13.50
2022-10-17T13:39:13.699Z,13.55
2022-10-17T13:41:43.008Z,13.52
2022-10-17T13:44:18.015Z,13.60
2022-10-17T13:46:46.265Z,13.75
2022-10-17T13:49:40.607Z,13.83
2022-10-17T13:52:21.596Z,13.89
2022-10-17T13:54:51.261Z,13.79
2022-10-17T13:57:27.473Z,13.77
2022-10-17T14:00:01.779Z,13.75
2022-10-17T14:02:41.648Z,13.77
2022-10-17T14:05:18.220Z,13.77
2022-10-17T14:08:20.459Z,13.85
2022-10-17T14:10:48.164Z,13.88
2022-10-17T14:13:27.946Z,14.01
2022-10-17T14:15:59.422Z,14.14
2022-10-17T14:18:36.663Z,14.20
2022-10-17T14:24:21.082Z,14.07
2022-10-17T14:26:50.889Z,14.05
2022-10-17T14:29:30.777Z,14.03
2022-10-17T14:32:06.233Z,14.23
2022-10-17T14:34:37.128Z,14.53
2022-10-17T14:37:38.480Z,14.72
2022-10-17T14:40:07.217Z,14.63
2022-10-17T14:42:40.483Z,14.54
2022-10-17T14:45:15.159Z,14.45
2022-10-17T14:47:44.131Z,14.48
2022-10-17T14:50:11.883Z,14.42
2022-10-17T14:52:40.408Z,14.36
2022-10-17T14:55:26.112Z,14.44
2022-10-17T14:57:53.635Z,14.53
2022-10-17T15:00:23.269Z,14.63
2022-10-17T15:02:52.453Z,14.67
2022-10-17T15:05:20.568Z,14.63
2022-10-17T15:07:48.047Z,14.66
2022-10-17T15:10:27.632Z,14.71
2022-10-17T15:12:58.794Z,14.68
2022-10-17T15:15:29.511Z,14.69
2022-10-17T15:17:57.370Z,14.70
2022-10-17T15:20:27.960Z,14.73
2022-10-17T15:23:01.807Z,14.72
2022-10-17T15:25:31.309Z,14.66
2022-10-17T15:27:58.924Z,14.64
2022-10-17T15:30:29.819Z,14.51
2022-10-17T15:32:58.573Z,14.35
2022-10-17T15:35:27.454Z,14.37
2022-10-17T15:37:55.374Z,14.35
2022-10-17T15:40:29.218Z,14.22
2022-10-17T15:42:57.255Z,14.15
2022-10-17T15:45:24.918Z,14.13
2022-10-17T15:47:55.903Z,14.12
2022-10-17T15:50:23.514Z,14.08
2022-10-17T15:52:51.181Z,13.99
2022-10-17T15:55:19.386Z,13.91
2022-10-17T15:57:48.968Z,13.86
2022-10-17T16:00:22.632Z,13.84
2022-10-17T16:02:51.064Z,13.83
2022-10-17T16:05:25.655Z,13.79
2022-10-17T16:07:54.133Z,13.69
2022-10-17T16:10:22.743Z,13.65
2022-10-17T16:12:50.681Z,13.57
2022-10-17T16:15:23.797Z,13.50
2022-10-17T16:17:53.019Z,13.43
2022-10-17T16:20:21.420Z,13.35
2022-10-17T16:22:49.771Z,13.33
2022-10-17T16:25:19.609Z,13.32
2022-10-17T16:27:48.651Z,13.29
2022-10-17T16:30:16.583Z,13.26
2022-10-17T16:32:44.312Z,13.23
2022-10-17T16:35:18.084Z,13.20
2022-10-17T16:37:45.611Z,13.18
2022-10-17T16:40:13.758Z,13.14
2022-10-17T16:42:41.422Z,13.06
2022-10-17T16:45:18.274Z,12.96
2022-10-17T16:47:46.985Z,12.88
2022-10-17T16:50:15.416Z,12.82
2022-10-17T16:52:42.957Z,12.81
2022-10-17T16:55:10.988Z,12.78
2022-10-17T16:57:38.581Z,12.78
2022-10-17T17:00:07.454Z,12.78
2022-10-17T17:02:35.558Z,12.79
2022-10-17T17:05:03.358Z,12.81
2022-10-17T17:07:31.091Z,12.82
2022-10-17T17:09:58.788Z,12.81
2022-10-17T17:12:26.332Z,12.74
2022-10-17T17:14:53.806Z,12.65
2022-10-17T17:17:30.627Z,12.59
2022-10-17T17:20:05.254Z,12.51
2022-10-17T17:22:32.827Z,12.45
2022-10-17T17:25:00.374Z,12.42
2022-10-17T17:27:29.260Z,12.33
2022-10-17T17:29:57.000Z,12.23
2022-10-17T17:32:24.520Z,12.17
2022-10-17T17:34:52.050Z,12.11
2022-10-17T17:37:19.561Z,12.07
2022-10-17T17:39:47.078Z,12.02
2022-10-17T17:42:14.521Z,11.96
2022-10-17T17:44:42.157Z,11.92
2022-10-17T17:47:09.628Z,11.92
2022-10-17T17:49:37.132Z,11.95
2022-10-17T17:52:04.937Z,11.97
2022-10-17T17:54:33.589Z,11.99
2022-10-17T17:57:02.512Z,12.07
2022-10-17T17:59:31.332Z,12.11
2022-10-17T18:01:59.007Z,12.15
2022-10-17T18:04:28.229Z,12.18
2022-10-17T18:06:56.230Z,12.22
2022-10-17T18:09:24.055Z,12.24
2022-10-17T18:11:51.626Z,12.27
2022-10-17T18:14:23.809Z,12.30
2022-10-17T18:16:52.569Z,12.25
2022-10-17T18:19:20.197Z,12.23
2022-10-17T18:21:48.894Z,12.18
2022-10-17T18:24:16.428Z,12.11
2022-10-17T18:26:44.048Z,12.05
2022-10-17T18:29:12.897Z,12.02
2022-10-17T18:31:40.621Z,12.01
2022-10-17T18:34:08.104Z,11.99
2022-10-17T18:36:37.311Z,11.96
2022-10-17T18:39:05.689Z,11.93
2022-10-17T18:41:33.778Z,11.95
2022-10-17T18:44:03.039Z,11.99
2022-10-17T18:46:36.168Z,12.00
2022-10-17T18:49:03.772Z,12.00
2022-10-17T18:51:31.256Z,12.01
2022-10-17T18:53:58.867Z,12.01
2022-10-17T18:56:26.993Z,12.01
2022-10-17T18:58:55.429Z,12.02
2022-10-17T19:01:25.834Z,12.02
2022-10-17T19:03:55.783Z,12.04
2022-10-17T19:06:31.679Z,12.05
2022-10-17T19:09:01.333Z,12.07
2022-10-17T19:11:30.616Z,12.08
2022-10-17T19:14:00.198Z,12.04
2022-10-17T19:16:30.786Z,12.04
2022-10-17T19:19:17.941Z,12.07
2022-10-17T19:21:45.988Z,12.06
2022-10-17T19:24:20.805Z,12.04
2022-10-17T19:26:50.825Z,12.04
2022-10-17T19:29:18.503Z,12.04
2022-10-17T19:31:47.663Z,12.04
2022-10-17T19:34:16.333Z,12.03
2022-10-17T19:36:44.770Z,12.07
2022-10-17T19:39:15.496Z,12.11
2022-10-17T19:41:44.863Z,12.14
2022-10-17T19:44:13.065Z,12.13
2022-10-17T19:46:41.005Z,12.16
2022-10-17T19:49:08.585Z,12.19
2022-10-17T19:51:36.153Z,12.20
2022-10-17T19:54:03.913Z,12.21
2022-10-17T19:56:36.774Z,12.22
2022-10-17T19:59:08.495Z,12.23
2022-10-17T20:01:39.083Z,12.23
2022-10-17T20:04:08.832Z,12.18
2022-10-17T20:06:36.683Z,12.12
2022-10-17T20:09:06.017Z,12.04
2022-10-17T20:11:33.810Z,11.99
2022-10-17T20:14:02.033Z,11.95
2022-10-17T20:16:32.375Z,11.96
2022-10-17T20:19:11.571Z,11.93
2022-10-17T20:21:42.420Z,11.97
2022-10-17T20:24:14.125Z,12.00
2022-10-17T20:26:41.973Z,12.01
2022-10-17T20:29:18.904Z,11.99
2022-10-17T20:31:47.192Z,11.99
2022-10-17T20:34:16.618Z,11.99
2022-10-17T20:36:44.279Z,11.99
2022-10-17T20:39:13.728Z,12.00
2022-10-17T20:41:42.086Z,12.01
2022-10-17T20:44:10.523Z,12.04
2022-10-17T20:46:44.681Z,12.05
2022-10-17T20:49:18.308Z,12.06
2022-10-17T20:51:46.475Z,12.09
2022-10-17T20:54:13.974Z,12.10
2022-10-17T20:56:41.680Z,12.08
2022-10-17T20:59:16.396Z,12.07
2022-10-17T21:01:45.310Z,12.07
2022-10-17T21:04:44.060Z,12.08
2022-10-17T21:07:01.331Z,12.05
2022-10-17T21:09:28.920Z,12.00
2022-10-17T21:11:57.061Z,11.93
2022-10-17T21:14:25.626Z,11.91
2022-10-17T21:16:53.324Z,11.88
2022-10-17T21:19:21.887Z,11.86
2022-10-17T21:21:50.082Z,11.85
2022-10-17T21:24:20.678Z,11.83
2022-10-17T21:26:53.567Z,11.81
2022-10-17T21:29:22.484Z,11.80
2022-10-17T21:31:50.647Z,11.78
2022-10-17T21:34:24.698Z,11.73
2022-10-17T21:36:52.621Z,11.67
2022-10-17T21:39:20.289Z,11.62
2022-10-17T21:41:47.892Z,11.58
2022-10-17T21:44:24.316Z,11.55
2022-10-17T21:46:53.044Z,11.51
2022-10-17T21:49:22.758Z,11.50
2022-10-17T21:51:51.706Z,11.47
2022-10-17T21:54:20.702Z,11.45
2022-10-17T21:56:48.663Z,11.44
2022-10-17T21:59:16.719Z,11.44
2022-10-17T22:01:45.681Z,11.43
2022-10-17T22:04:16.464Z,11.44
2022-10-17T22:06:45.983Z,11.40
2022-10-17T22:09:21.497Z,11.37
2022-10-17T22:11:51.835Z,11.37
2022-10-17T22:14:21.111Z,11.37
2022-10-17T22:16:49.741Z,11.37
2022-10-17T22:19:20.832Z,11.40
2022-10-17T22:21:48.831Z,11.44
2022-10-17T22:24:18.133Z,11.46
2022-10-17T22:26:46.669Z,11.44
2022-10-17T22:29:14.344Z,11.41
2022-10-17T22:31:42.115Z,11.37
2022-10-17T22:34:11.905Z,11.30
2022-10-17T22:36:39.431Z,11.24
2022-10-17T22:39:07.512Z,11.21
2022-10-17T22:41:35.289Z,11.16
2022-10-17T22:44:03.243Z,11.15
2022-10-17T22:46:30.892Z,11.14
2022-10-17T22:48:58.362Z,11.11
2022-10-17T22:51:26.243Z,11.07
2022-10-17T22:53:53.775Z,11.03
2022-10-17T22:56:22.915Z,11.01
2022-10-17T22:58:50.974Z,10.96
2022-10-17T23:01:22.332Z,10.93
2022-10-17T23:03:51.007Z,10.90
2022-10-17T23:06:18.908Z,10.86
2022-10-17T23:08:46.956Z,10.85
2022-10-17T23:11:14.546Z,10.81
2022-10-17T23:13:42.255Z,10.77
2022-10-17T23:16:10.067Z,10.72
2022-10-17T23:18:38.532Z,10.65
2022-10-17T23:21:06.311Z,10.58
2022-10-17T23:23:34.315Z,10.52
2022-10-17T23:26:07.172Z,10.45
2022-10-17T23:28:35.781Z,10.40
2022-10-17T23:31:19.546Z,10.33
2022-10-17T23:33:49.330Z,10.29
2022-10-17T23:36:19.811Z,10.30
2022-10-17T23:38:48.191Z,10.29
2022-10-17T23:41:16.366Z,10.28
2022-10-17T23:43:44.279Z,10.27
2022-10-17T23:46:12.059Z,10.24
2022-10-17T23:48:40.309Z,10.22
2022-10-17T23:51:09.238Z,10.20
2022-10-17T23:53:37.886Z,10.19
2022-10-17T23:56:06.718Z,10.17
2022-10-17T23:58:34.760Z,10.16
